Terminal Aerodrome Forecast
Issued by NWS

Current Version | Previous Version | Text Only | Print | Product List | Glossary On
Versions: 1 2 3 4 5 6 7 8 9 10 11 12 13 14 15 16 17 18 19 20 21 22 23 24 25 26 27
565
FTUS43 KABR 251120
TAFATY
TAF
KATY 251120Z 2512/2612 08008KT P6SM OVC007
     FM251900 10009KT P6SM BKN030
     FM260100 VRB06KT P6SM SCT015
     FM260800 VRB04KT 3SM BR BKN003=

USA.gov is the U.S. government's official web portal to all federal, state and local government web resources and services.